Time;durP1;ratioP1;P1;durP2;ratioP2;P2;SDS_P1;SDS_P2;PMS_P1;PMS_P2;Temp;Humidity;BMP_temperature;BMP_pressure;BME280_temperature;BME280_humidity;BME280_pressure;Samples;Min_cycle;Max_cycle;Signal;HPM_P1;HPM_P2
2023/01/07 00:01:41;;;;;;;10.53;1.77;;;19.80;99.90;;;;;;5073320;28;20182;-68
2023/01/07 00:04:11;;;;;;;4.73;1.63;;;19.90;99.90;;;;;;5073225;28;20172;-69
2023/01/07 00:06:41;;;;;;;7.67;1.87;;;20.00;99.90;;;;;;5073213;28;20601;-71
2023/01/07 00:09:12;;;;;;;8.13;1.77;;;20.10;99.90;;;;;;5072827;28;20233;-73
2023/01/07 00:11:40;;;;;;;9.30;1.80;;;20.00;99.90;;;;;;5072765;28;20176;-70
2023/01/07 00:14:11;;;;;;;5.60;1.60;;;20.30;99.90;;;;;;5073590;28;20530;-70
2023/01/07 00:16:39;;;;;;;7.47;1.87;;;20.30;99.90;;;;;;5072807;28;20258;-69
2023/01/07 00:19:12;;;;;;;5.70;1.90;;;20.40;99.90;;;;;;5071571;28;20710;-72
2023/01/07 00:21:40;;;;;;;8.50;1.77;;;20.50;99.90;;;;;;5072714;28;20194;-73
2023/01/07 00:24:10;;;;;;;8.13;2.00;;;20.70;99.90;;;;;;5072925;28;20198;-73
2023/01/07 00:26:39;;;;;;;8.67;1.60;;;20.70;99.90;;;;;;5072943;28;20629;-69
2023/01/07 00:29:07;;;;;;;7.13;1.93;;;20.90;99.90;;;;;;5072961;28;20176;-72
2023/01/07 00:31:38;;;;;;;10.07;1.80;;;21.10;99.90;;;;;;5072935;28;20172;-70
2023/01/07 00:34:07;;;;;;;9.67;2.07;;;21.30;99.90;;;;;;5073040;28;20542;-67
2023/01/07 00:36:38;;;;;;;7.00;1.60;;;21.50;99.90;;;;;;5072837;28;20168;-69
2023/01/07 00:39:15;;;;;;;5.67;1.87;;;21.70;99.90;;;;;;5072387;28;20661;-67
2023/01/07 00:44:29;;;;;;;8.17;1.47;;;21.90;99.90;;;;;;5072744;28;20228;-68
2023/01/07 00:46:58;;;;;;;7.27;1.50;;;21.90;99.90;;;;;;5072686;28;20172;-69
2023/01/07 00:49:25;;;;;;;9.37;1.60;;;21.90;99.90;;;;;;5072755;28;20704;-70
2023/01/07 00:51:53;;;;;;;4.53;1.50;;;21.80;99.90;;;;;;5076557;28;20537;-68
2023/01/07 00:54:20;;;;;;;7.93;1.47;;;21.80;99.90;;;;;;5076902;28;20183;-68
2023/01/07 00:56:48;;;;;;;7.40;1.47;;;21.70;99.90;;;;;;5076820;28;20225;-67
2023/01/07 00:59:15;;;;;;;4.57;1.40;;;21.70;99.90;;;;;;5076815;28;20306;-68
2023/01/07 01:01:43;;;;;;;3.83;1.30;;;22.00;99.90;;;;;;5076544;28;20182;-68
2023/01/07 01:04:10;;;;;;;7.43;1.33;;;22.00;99.90;;;;;;5076765;28;20229;-68
2023/01/07 01:06:37;;;;;;;5.70;1.40;;;22.10;99.90;;;;;;5075098;28;20328;-68
2023/01/07 01:09:05;;;;;;;2.77;1.20;;;22.60;99.90;;;;;;5076761;28;20172;-68
2023/01/07 01:11:32;;;;;;;5.40;1.20;;;22.60;99.90;;;;;;5075235;28;20190;-68
2023/01/07 01:14:00;;;;;;;4.30;1.50;;;22.70;99.90;;;;;;5076576;28;20187;-67
2023/01/07 01:16:27;;;;;;;7.00;1.67;;;22.80;99.90;;;;;;5076440;28;20168;-68
2023/01/07 01:18:55;;;;;;;7.07;1.67;;;22.70;99.90;;;;;;5074844;28;20222;-68
2023/01/07 01:21:22;;;;;;;8.57;1.63;;;22.60;99.90;;;;;;5076347;28;20186;-68
2023/01/07 01:23:50;;;;;;;10.20;1.37;;;22.40;99.90;;;;;;5076329;28;20174;-68
2023/01/07 01:26:18;;;;;;;6.50;1.40;;;22.20;99.90;;;;;;5076222;28;20243;-67
2023/01/07 01:28:45;;;;;;;6.20;1.43;;;22.00;99.90;;;;;;5076558;28;20207;-67
2023/01/07 01:31:13;;;;;;;6.93;1.37;;;21.80;99.90;;;;;;5076027;28;20169;-68
2023/01/07 01:33:40;;;;;;;5.87;1.90;;;21.70;99.90;;;;;;5075928;28;20172;-67
2023/01/07 01:36:11;;;;;;;12.63;1.83;;;21.80;99.90;;;;;;5076013;28;20168;-68
2023/01/07 01:38:39;;;;;;;7.70;1.60;;;22.20;99.90;;;;;;5076354;28;20219;-74
2023/01/07 01:41:07;;;;;;;10.60;1.73;;;22.50;99.90;;;;;;5076058;28;20168;-68
2023/01/07 01:43:37;;;;;;;4.57;0.97;;;22.80;99.90;;;;;;5076015;28;20168;-68
2023/01/07 01:46:20;;;;;;;8.53;1.20;;;22.70;99.90;;;;;;5075696;28;20168;-69
2023/01/07 01:49:02;;;;;;;8.60;1.43;;;22.30;99.90;;;;;;5076039;28;20172;-76
2023/01/07 01:51:35;;;;;;;13.97;4.90;;;22.00;99.90;;;;;;5075656;28;20179;-76
2023/01/07 01:54:06;;;;;;;10.73;1.43;;;21.90;99.90;;;;;;5076091;28;20318;-74
2023/01/07 01:56:38;;;;;;;7.00;1.37;;;21.90;99.90;;;;;;5075627;28;20273;-76
2023/01/07 01:59:08;;;;;;;8.07;1.60;;;22.00;99.90;;;;;;5075579;28;20675;-76
2023/01/07 02:01:36;;;;;;;4.00;1.20;;;22.00;99.90;;;;;;5075440;28;20180;-75
2023/01/07 02:04:11;;;;;;;6.37;1.37;;;22.00;99.90;;;;;;5075720;28;20190;-72
2023/01/07 02:06:43;;;;;;;8.07;2.03;;;22.00;99.90;;;;;;5074193;28;20573;-76
2023/01/07 02:09:14;;;;;;;7.90;1.30;;;22.00;99.90;;;;;;5075533;28;20176;-76
2023/01/07 02:11:56;;;;;;;8.80;1.87;;;22.30;99.90;;;;;;5075181;28;20178;-73
2023/01/07 02:14:41;;;;;;;4.57;1.50;;;22.30;99.90;;;;;;5075695;28;20187;-77
2023/01/07 02:17:36;;;;;;;8.00;1.80;;;22.70;99.90;;;;;;5073703;28;20261;-75
2023/01/07 02:20:30;;;;;;;5.77;1.20;;;23.10;99.90;;;;;;5075326;28;20207;-73
2023/01/07 02:23:33;;;;;;;5.23;1.33;;;23.30;99.90;;;;;;5075242;28;20189;-76
2023/01/07 02:26:03;;;;;;;7.63;1.47;;;23.60;99.90;;;;;;5061566;28;20539;-76
2023/01/07 02:29:07;;;;;;;5.93;1.57;;;24.00;99.90;;;;;;5075150;28;20641;-71
2023/01/07 02:31:52;;;;;;;5.70;1.40;;;23.90;99.90;;;;;;5075633;28;20179;-70
2023/01/07 02:34:37;;;;;;;4.13;1.20;;;24.00;99.90;;;;;;5075167;28;20176;-69
2023/01/07 02:37:40;;;;;;;6.87;1.60;;;24.10;99.90;;;;;;5075057;28;20176;-73
2023/01/07 02:40:20;;;;;;;11.50;1.77;;;24.30;99.90;;;;;;5075786;28;20234;-70
2023/01/07 02:43:03;;;;;;;7.77;1.17;;;24.10;99.90;;;;;;5073442;28;20186;-72
2023/01/07 02:45:51;;;;;;;6.10;1.20;;;23.80;99.90;;;;;;5075162;28;20176;-68
2023/01/07 02:48:21;;;;;;;5.93;1.37;;;23.90;99.90;;;;;;5075244;28;20186;-70
2023/01/07 02:50:50;;;;;;;5.03;1.20;;;23.80;99.90;;;;;;5074940;28;20538;-70
2023/01/07 02:53:20;;;;;;;3.23;0.80;;;23.80;99.90;;;;;;5074648;28;20175;-69
2023/01/07 02:55:59;;;;;;;6.07;1.40;;;23.90;99.90;;;;;;5074705;28;20183;-69
2023/01/07 02:58:36;;;;;;;4.57;1.40;;;23.70;99.90;;;;;;5074655;28;20209;-69
2023/01/07 03:01:12;;;;;;;3.50;0.97;;;23.70;99.90;;;;;;5074622;28;20432;-72
2023/01/07 03:03:57;;;;;;;7.33;1.80;;;24.00;99.90;;;;;;5074466;28;20639;-69
2023/01/07 03:06:54;;;;;;;2.63;0.90;;;23.90;99.90;;;;;;5074511;28;20179;-69
2023/01/07 03:09:32;;;;;;;6.40;1.20;;;23.90;99.90;;;;;;5057640;28;20199;-68
2023/01/07 03:12:01;;;;;;;5.27;1.23;;;23.80;99.90;;;;;;5074156;28;20222;-68
2023/01/07 03:14:47;;;;;;;4.43;1.30;;;23.80;99.90;;;;;;5072356;28;20187;-68
2023/01/07 03:17:25;;;;;;;3.27;1.10;;;23.80;99.90;;;;;;5074055;28;20183;-70
2023/01/07 03:19:56;;;;;;;4.57;1.17;;;24.00;99.90;;;;;;5074046;28;20357;-68
2023/01/07 03:22:27;;;;;;;4.70;1.10;;;24.20;99.90;;;;;;5074065;28;20267;-70
2023/01/07 03:24:57;;;;;;;5.43;1.30;;;24.40;99.90;;;;;;5073965;28;20183;-68
2023/01/07 03:27:28;;;;;;;6.37;1.13;;;24.60;99.90;;;;;;5080742;28;20176;-75
2023/01/07 03:29:55;;;;;;;4.50;1.33;;;24.80;99.90;;;;;;5080204;28;20175;-72
2023/01/07 03:32:29;;;;;;;7.03;1.30;;;25.10;99.90;;;;;;5075023;28;20188;-72
2023/01/07 03:34:56;;;;;;;3.87;1.07;;;25.60;99.90;;;;;;5073573;28;20179;-72
2023/01/07 03:37:26;;;;;;;3.77;1.30;;;25.80;99.90;;;;;;5089009;28;20186;-70
2023/01/07 03:39:54;;;;;;;8.37;1.27;;;25.90;99.90;;;;;;5092067;28;20621;-71
2023/01/07 03:42:38;;;;;;;3.90;1.50;;;25.90;99.90;;;;;;5084232;28;20593;-72
2023/01/07 03:45:16;;;;;;;2.93;1.00;;;25.90;99.90;;;;;;5073683;28;20712;-70
2023/01/07 03:47:49;;;;;;;6.87;1.13;;;25.50;99.90;;;;;;5073642;28;20637;-72
2023/01/07 03:50:18;;;;;;;2.70;0.93;;;25.50;99.90;;;;;;5073363;28;20183;-70
2023/01/07 03:52:47;;;;;;;4.73;1.17;;;25.80;99.90;;;;;;5079401;28;20180;-70
2023/01/07 03:55:14;;;;;;;3.23;1.30;;;26.00;99.90;;;;;;5082714;28;20179;-71
2023/01/07 03:57:42;;;;;;;6.33;0.90;;;26.30;99.90;;;;;;5089929;28;20183;-70
2023/01/07 04:00:12;;;;;;;6.43;1.37;;;26.30;99.90;;;;;;5093459;28;20184;-71
2023/01/07 04:02:40;;;;;;;5.47;0.90;;;26.30;99.90;;;;;;5092135;28;20513;-71
2023/01/07 04:05:09;;;;;;;3.53;1.37;;;26.20;99.90;;;;;;5093351;28;20167;-71
2023/01/07 04:07:37;;;;;;;4.30;1.03;;;26.50;99.90;;;;;;5087544;28;20183;-73
2023/01/07 04:10:09;;;;;;;6.83;1.07;;;26.50;99.90;;;;;;5073526;28;20218;-72
2023/01/07 04:12:36;;;;;;;5.43;0.83;;;26.50;99.90;;;;;;5074583;28;20211;-71
2023/01/07 04:15:04;;;;;;;4.03;1.10;;;26.50;99.90;;;;;;5076663;28;20195;-72
2023/01/07 04:17:32;;;;;;;5.70;1.00;;;26.40;99.90;;;;;;5074250;28;20180;-75
2023/01/07 04:19:59;;;;;;;4.70;1.23;;;26.70;99.90;;;;;;5092110;28;20256;-71
2023/01/07 04:22:26;;;;;;;5.83;1.47;;;26.50;99.90;;;;;;5079332;28;20192;-72
2023/01/07 04:24:54;;;;;;;5.80;1.13;;;26.20;99.90;;;;;;5079142;28;20270;-73
2023/01/07 04:27:21;;;;;;;9.47;1.67;;;26.10;99.90;;;;;;5071783;28;20346;-73
2023/01/07 04:29:49;;;;;;;9.97;1.70;;;26.10;99.90;;;;;;5071564;28;20951;-73
2023/01/07 04:32:16;;;;;;;7.07;1.27;;;26.30;99.90;;;;;;5077303;28;20206;-74
2023/01/07 04:34:43;;;;;;;9.23;1.40;;;26.40;99.90;;;;;;5091887;28;20262;-73
2023/01/07 04:37:11;;;;;;;10.73;2.03;;;26.30;99.90;;;;;;5081415;28;20184;-74
2023/01/07 04:39:38;;;;;;;5.33;1.40;;;26.20;99.90;;;;;;5079366;28;20217;-73
2023/01/07 04:42:06;;;;;;;7.40;2.00;;;26.10;99.90;;;;;;5083334;28;20183;-72
2023/01/07 04:44:33;;;;;;;8.90;1.80;;;26.00;99.90;;;;;;5087075;28;20660;-72
2023/01/07 04:47:00;;;;;;;10.07;2.03;;;26.20;99.90;;;;;;5078704;28;20597;-71
2023/01/07 04:49:28;;;;;;;10.40;1.90;;;26.20;99.90;;;;;;5091712;28;20760;-71
2023/01/07 04:51:56;;;;;;;10.67;2.00;;;26.00;99.90;;;;;;5088338;28;20183;-73
2023/01/07 04:54:23;;;;;;;14.67;2.43;;;25.80;99.90;;;;;;5087364;28;20266;-72
2023/01/07 04:56:51;;;;;;;7.57;1.70;;;25.70;99.90;;;;;;5071169;28;20221;-71
2023/01/07 04:59:18;;;;;;;13.30;1.90;;;25.30;99.90;;;;;;5071038;28;20238;-72
2023/01/07 05:01:46;;;;;;;8.23;2.30;;;25.20;99.90;;;;;;5075144;28;20176;-74
2023/01/07 05:04:13;;;;;;;5.63;1.70;;;25.00;99.90;;;;;;5071304;28;20188;-72
2023/01/07 05:06:41;;;;;;;8.63;1.87;;;24.80;99.90;;;;;;5071064;28;20190;-72
2023/01/07 05:09:10;;;;;;;14.20;2.00;;;24.70;99.90;;;;;;5071539;28;20190;-72
2023/01/07 05:11:37;;;;;;;10.77;2.17;;;24.70;99.90;;;;;;5082110;28;20176;-71
2023/01/07 05:14:04;;;;;;;5.40;1.17;;;24.70;99.90;;;;;;5075541;28;20199;-73
2023/01/07 05:16:32;;;;;;;8.33;2.03;;;24.60;99.90;;;;;;5074303;28;20544;-72
2023/01/07 05:18:59;;;;;;;8.27;1.30;;;24.60;99.90;;;;;;5083165;28;20255;-72
2023/01/07 05:21:27;;;;;;;4.43;1.20;;;24.70;99.90;;;;;;5071004;28;20225;-73
2023/01/07 05:23:54;;;;;;;8.60;1.60;;;24.60;99.90;;;;;;5077813;28;20248;-72
2023/01/07 05:26:21;;;;;;;6.33;1.27;;;24.40;99.90;;;;;;5091312;28;20574;-71
2023/01/07 05:28:49;;;;;;;12.57;1.77;;;24.20;99.90;;;;;;5085560;28;20175;-73
2023/01/07 05:31:16;;;;;;;4.40;1.07;;;24.20;99.90;;;;;;5070609;28;20552;-71
2023/01/07 05:33:44;;;;;;;7.93;1.47;;;24.30;99.90;;;;;;5071005;28;20195;-72
2023/01/07 05:36:11;;;;;;;8.93;1.27;;;24.20;99.90;;;;;;5072091;28;20179;-72
2023/01/07 05:38:39;;;;;;;5.77;1.47;;;24.10;99.90;;;;;;5088511;28;20221;-70
2023/01/07 05:41:07;;;;;;;8.73;1.30;;;24.00;99.90;;;;;;5094764;28;20650;-72
2023/01/07 05:43:34;;;;;;;6.90;1.17;;;24.00;99.90;;;;;;5093479;28;20213;-71
2023/01/07 05:46:02;;;;;;;4.47;1.17;;;23.90;99.90;;;;;;5094066;28;20258;-73
2023/01/07 05:48:29;;;;;;;9.07;1.60;;;24.10;99.90;;;;;;5093398;28;20179;-73
2023/01/07 05:50:57;;;;;;;5.97;1.30;;;23.90;99.90;;;;;;5094756;28;20178;-73
2023/01/07 05:53:24;;;;;;;11.10;2.17;;;23.90;99.90;;;;;;5089099;28;20252;-73
2023/01/07 05:55:58;;;;;;;11.27;1.90;;;23.80;99.90;;;;;;5074367;28;20179;-73
2023/01/07 05:58:26;;;;;;;12.43;2.20;;;23.80;99.90;;;;;;5074175;28;20211;-73
2023/01/07 06:00:54;;;;;;;5.53;1.50;;;23.70;99.90;;;;;;5075076;28;20229;-71
2023/01/07 06:03:22;;;;;;;4.10;1.40;;;23.60;99.90;;;;;;5074224;28;20184;-71
2023/01/07 06:05:50;;;;;;;17.60;2.57;;;23.50;99.90;;;;;;5074295;28;20240;-72
2023/01/07 06:08:17;;;;;;;11.07;2.03;;;23.40;99.90;;;;;;5073672;28;20207;-72
2023/01/07 06:10:44;;;;;;;8.70;1.83;;;23.40;99.90;;;;;;5073977;28;20235;-71
2023/01/07 06:13:12;;;;;;;9.47;1.67;;;23.30;99.90;;;;;;5072553;28;20289;-71
2023/01/07 06:15:39;;;;;;;3.63;1.37;;;23.10;99.90;;;;;;5073804;28;20184;-72
2023/01/07 06:18:10;;;;;;;8.10;1.40;;;23.00;99.90;;;;;;5074657;28;20665;-72
2023/01/07 06:20:37;;;;;;;6.37;1.43;;;22.90;99.90;;;;;;5073752;28;20213;-72
2023/01/07 06:23:05;;;;;;;5.60;1.30;;;22.90;99.90;;;;;;5078274;28;20180;-69
2023/01/07 06:25:32;;;;;;;8.07;1.53;;;22.70;99.90;;;;;;5094035;28;20178;-72
2023/01/07 06:28:00;;;;;;;8.73;1.47;;;22.70;99.90;;;;;;5094225;28;20202;-72
2023/01/07 06:30:27;;;;;;;6.83;1.43;;;22.60;99.90;;;;;;5076318;28;20187;-73
2023/01/07 06:32:55;;;;;;;8.10;1.63;;;22.60;99.90;;;;;;5074083;28;20184;-73
2023/01/07 06:35:22;;;;;;;7.43;1.37;;;22.70;99.90;;;;;;5084660;28;20213;-72
2023/01/07 06:37:49;;;;;;;6.07;1.20;;;22.60;99.90;;;;;;5087830;28;20203;-71
2023/01/07 06:40:17;;;;;;;8.10;1.50;;;22.60;99.90;;;;;;5080671;28;20645;-71
2023/01/07 06:42:45;;;;;;;4.37;1.60;;;22.50;99.90;;;;;;5078320;28;20201;-72
2023/01/07 06:45:12;;;;;;;6.93;1.67;;;22.50;99.90;;;;;;5055090;28;20187;-72
2023/01/07 06:47:40;;;;;;;9.70;2.07;;;22.50;99.90;;;;;;5072902;28;20175;-72
2023/01/07 06:50:08;;;;;;;12.27;1.70;;;22.50;99.90;;;;;;5093160;28;20217;-73
2023/01/07 06:52:35;;;;;;;4.37;1.33;;;22.50;99.90;;;;;;5093411;28;20179;-72
2023/01/07 06:55:03;;;;;;;5.43;1.13;;;22.50;99.90;;;;;;5080284;28;20178;-72
2023/01/07 06:57:31;;;;;;;7.07;1.67;;;22.50;99.90;;;;;;5093419;28;20196;-72
2023/01/07 06:59:58;;;;;;;8.30;2.07;;;22.40;99.90;;;;;;5092940;28;20215;-72
2023/01/07 07:02:27;;;;;;;5.60;1.40;;;22.30;99.90;;;;;;5093380;28;20652;-71
2023/01/07 07:04:55;;;;;;;7.60;1.57;;;22.20;99.90;;;;;;5093316;28;20179;-72
2023/01/07 07:07:23;;;;;;;9.70;1.57;;;22.10;99.90;;;;;;5092809;28;20182;-72
2023/01/07 07:09:50;;;;;;;5.73;1.50;;;22.10;99.90;;;;;;5093322;28;20661;-71
2023/01/07 07:12:18;;;;;;;8.00;1.60;;;22.10;99.90;;;;;;5093073;28;20237;-71
2023/01/07 07:14:46;;;;;;;4.73;1.13;;;22.00;99.90;;;;;;5092606;28;20252;-72
2023/01/07 07:17:13;;;;;;;8.40;1.40;;;22.10;99.90;;;;;;5093094;28;20175;-72
2023/01/07 07:19:40;;;;;;;5.50;1.47;;;22.00;99.90;;;;;;5092973;28;20221;-71
2023/01/07 07:22:08;;;;;;;4.03;1.40;;;21.90;99.90;;;;;;5091625;28;20228;-71
2023/01/07 07:24:35;;;;;;;9.67;1.57;;;21.90;99.90;;;;;;5071837;28;20186;-71
2023/01/07 07:27:03;;;;;;;8.73;1.87;;;21.80;99.90;;;;;;5075370;28;20701;-72
2023/01/07 07:29:30;;;;;;;5.47;1.93;;;21.70;99.90;;;;;;5080536;28;20475;-72
2023/01/07 07:31:58;;;;;;;8.87;2.17;;;21.50;99.90;;;;;;5083067;28;20174;-71
2023/01/07 07:34:25;;;;;;;8.97;1.90;;;21.50;99.90;;;;;;5079021;28;20179;-72
2023/01/07 07:36:52;;;;;;;7.13;2.13;;;21.40;99.90;;;;;;5085092;28;20187;-70
2023/01/07 07:39:20;;;;;;;6.70;1.80;;;21.40;99.90;;;;;;5091484;28;20211;-74
2023/01/07 07:41:47;;;;;;;4.40;1.50;;;21.40;99.90;;;;;;5092651;28;20181;-72
2023/01/07 07:44:15;;;;;;;6.87;1.67;;;21.40;99.90;;;;;;5073778;28;20180;-73
2023/01/07 07:46:42;;;;;;;4.30;1.30;;;21.40;99.90;;;;;;5072866;28;20172;-75
2023/01/07 07:49:11;;;;;;;6.93;1.80;;;21.40;99.90;;;;;;5071465;28;20314;-72
2023/01/07 07:51:38;;;;;;;8.07;1.57;;;21.30;99.90;;;;;;5087472;28;20776;-73
2023/01/07 07:54:06;;;;;;;3.37;1.10;;;21.10;99.90;;;;;;5092556;28;20171;-72
2023/01/07 07:56:33;;;;;;;5.37;1.73;;;21.00;99.90;;;;;;5092386;28;20179;-72
2023/01/07 07:59:00;;;;;;;7.13;1.73;;;20.90;99.90;;;;;;5073809;28;20216;-73
2023/01/07 08:01:31;;;;;;;8.13;1.63;;;20.80;99.90;;;;;;5070782;28;20208;-75
2023/01/07 08:03:59;;;;;;;5.97;1.23;;;20.80;99.90;;;;;;5072111;28;20596;-73
2023/01/07 08:06:26;;;;;;;5.37;1.23;;;20.70;99.90;;;;;;5071467;28;20262;-73
2023/01/07 08:08:54;;;;;;;3.97;0.93;;;20.70;99.90;;;;;;5088121;28;20735;-73
2023/01/07 08:11:21;;;;;;;7.07;1.27;;;20.60;99.90;;;;;;5092266;28;20222;-72
2023/01/07 08:13:48;;;;;;;3.47;1.00;;;20.60;99.90;;;;;;5091600;28;20318;-72
2023/01/07 08:16:16;;;;;;;3.77;1.23;;;20.50;99.90;;;;;;5092130;28;20178;-71
2023/01/07 08:18:43;;;;;;;4.93;1.40;;;20.50;99.90;;;;;;5076560;28;20294;-74
2023/01/07 08:21:10;;;;;;;4.13;1.00;;;20.50;99.90;;;;;;5071418;28;20181;-73
2023/01/07 08:23:38;;;;;;;4.77;1.13;;;20.50;99.90;;;;;;5072058;28;20181;-74
2023/01/07 08:26:05;;;;;;;5.43;1.10;;;20.50;99.90;;;;;;5072963;28;20197;-72
2023/01/07 08:28:33;;;;;;;6.83;1.10;;;20.50;99.90;;;;;;5073736;28;20552;-73
2023/01/07 08:31:05;;;;;;;6.23;1.30;;;20.40;99.90;;;;;;5071910;28;20172;-74
2023/01/07 08:33:36;;;;;;;5.10;1.10;;;20.40;99.90;;;;;;5071735;28;20183;-74
2023/01/07 08:36:08;;;;;;;8.10;1.40;;;20.40;99.90;;;;;;5071239;28;20184;-74
2023/01/07 08:38:36;;;;;;;7.60;1.07;;;20.40;99.90;;;;;;5089639;28;20661;-74
2023/01/07 08:41:03;;;;;;;8.43;1.43;;;20.40;99.90;;;;;;5080258;28;20178;-74
2023/01/07 08:43:32;;;;;;;9.33;1.70;;;20.30;99.90;;;;;;5071091;28;20180;-74
2023/01/07 08:45:59;;;;;;;6.70;1.53;;;20.30;99.90;;;;;;5074866;28;20171;-73
2023/01/07 08:48:27;;;;;;;12.13;2.27;;;20.20;99.90;;;;;;5079398;28;20671;-74
2023/01/07 08:50:55;;;;;;;12.60;1.57;;;20.10;99.90;;;;;;5071140;28;20672;-72
2023/01/07 08:53:23;;;;;;;10.73;2.33;;;20.10;99.90;;;;;;5071375;28;20256;-72
2023/01/07 08:55:50;;;;;;;11.83;1.73;;;20.10;99.90;;;;;;5077440;28;20522;-73
2023/01/07 08:58:18;;;;;;;9.47;1.57;;;20.00;99.90;;;;;;5080522;28;20224;-72
2023/01/07 09:00:45;;;;;;;4.77;1.10;;;20.00;99.90;;;;;;5071348;28;20215;-72
2023/01/07 09:03:13;;;;;;;11.57;2.00;;;20.00;99.90;;;;;;5071113;28;20251;-72
2023/01/07 09:05:40;;;;;;;8.00;1.50;;;19.90;99.90;;;;;;5070711;28;20231;-72
2023/01/07 09:08:07;;;;;;;6.87;1.33;;;19.80;99.90;;;;;;5079400;28;20191;-75
2023/01/07 09:10:35;;;;;;;9.00;1.40;;;19.80;99.90;;;;;;5085936;28;20485;-72
2023/01/07 09:13:03;;;;;;;5.30;1.53;;;19.80;99.90;;;;;;5074653;28;20223;-73
2023/01/07 09:15:30;;;;;;;3.00;0.97;;;19.80;99.90;;;;;;5075200;28;20181;-74
2023/01/07 09:17:58;;;;;;;4.00;1.10;;;19.80;99.90;;;;;;5076139;28;20649;-74
2023/01/07 09:20:25;;;;;;;6.87;1.33;;;19.80;99.90;;;;;;5074606;28;20190;-73
2023/01/07 09:22:53;;;;;;;9.93;1.60;;;19.80;99.90;;;;;;5074915;28;20176;-74
2023/01/07 09:25:20;;;;;;;6.23;1.33;;;19.70;99.90;;;;;;5094422;28;20190;-73
2023/01/07 09:27:48;;;;;;;9.00;1.60;;;19.70;99.90;;;;;;5083230;28;20203;-73
2023/01/07 09:30:16;;;;;;;8.90;1.53;;;19.70;99.90;;;;;;5079292;28;20175;-71
2023/01/07 09:32:44;;;;;;;6.23;1.30;;;19.60;99.90;;;;;;5095082;28;20214;-72
2023/01/07 09:35:12;;;;;;;5.07;1.33;;;19.70;99.90;;;;;;5094603;28;20180;-72
2023/01/07 09:37:40;;;;;;;4.80;1.30;;;19.70;99.90;;;;;;5086691;28;20212;-72
2023/01/07 09:40:13;;;;;;;9.67;1.80;;;19.70;99.90;;;;;;5072993;28;20546;-71
2023/01/07 09:42:50;;;;;;;7.73;1.87;;;19.70;99.90;;;;;;5074231;28;20183;-73
2023/01/07 09:45:30;;;;;;;13.23;1.80;;;19.60;99.90;;;;;;5075064;28;20524;-72
2023/01/07 09:48:00;;;;;;;9.23;2.13;;;19.60;99.90;;;;;;5078596;28;20191;-70
2023/01/07 09:50:40;;;;;;;9.63;1.90;;;19.60;99.90;;;;;;5089081;28;20326;-71
2023/01/07 09:53:25;;;;;;;10.27;1.93;;;19.60;99.90;;;;;;5095255;28;20246;-71
2023/01/07 09:55:54;;;;;;;6.47;1.50;;;19.70;99.90;;;;;;5086195;28;20184;-73
2023/01/07 09:58:22;;;;;;;8.97;1.57;;;19.60;99.90;;;;;;5084663;28;20571;-71
2023/01/07 10:01:27;;;;;;;5.90;2.00;;;19.60;99.90;;;;;;5094724;28;20171;-73
2023/01/07 10:04:08;;;;;;;7.47;1.80;;;19.70;99.90;;;;;;5094117;28;20263;-72
2023/01/07 10:06:44;;;;;;;8.90;2.00;;;19.60;99.90;;;;;;5094417;28;20204;-72
2023/01/07 10:09:21;;;;;;;9.67;1.77;;;19.60;99.90;;;;;;5074300;28;20642;-71
2023/01/07 10:12:08;;;;;;;9.33;2.13;;;19.60;99.90;;;;;;5073292;28;20234;-70
2023/01/07 10:14:57;;;;;;;9.67;1.90;;;19.60;99.90;;;;;;5074192;28;20180;-70
2023/01/07 10:17:44;;;;;;;7.53;1.60;;;19.60;99.90;;;;;;5083332;28;20684;-75
2023/01/07 10:20:36;;;;;;;11.07;2.13;;;19.50;99.90;;;;;;5090444;28;20253;-74
2023/01/07 10:23:27;;;;;;;3.53;1.47;;;19.50;99.90;;;;;;5073508;28;20206;-74
2023/01/07 10:25:57;;;;;;;7.43;1.47;;;19.60;99.90;;;;;;5075047;28;20233;-70
2023/01/07 10:28:35;;;;;;;5.33;1.50;;;19.60;99.90;;;;;;5090391;28;20588;-72
2023/01/07 10:31:04;;;;;;;7.07;1.53;;;19.60;99.90;;;;;;5089753;28;20200;-71
2023/01/07 10:33:33;;;;;;;8.77;1.40;;;19.50;99.90;;;;;;5083060;28;20196;-69
2023/01/07 10:36:15;;;;;;;7.70;1.53;;;19.50;99.90;;;;;;5074899;28;20176;-73
2023/01/07 10:38:47;;;;;;;10.53;2.07;;;19.50;99.90;;;;;;5084496;28;20272;-72
2023/01/07 10:41:25;;;;;;;8.97;1.90;;;19.50;99.90;;;;;;5092027;28;20202;-70
2023/01/07 10:44:34;;;;;;;10.30;1.87;;;19.50;99.90;;;;;;5102003;28;20177;-70
2023/01/07 10:47:23;;;;;;;12.20;2.20;;;19.40;99.90;;;;;;5095712;28;20171;-70
2023/01/07 10:50:17;;;;;;;17.07;2.43;;;19.40;99.90;;;;;;5094829;28;20230;-70
2023/01/07 10:53:09;;;;;;;4.83;1.50;;;19.40;99.90;;;;;;5095151;28;20175;-72
2023/01/07 10:56:21;;;;;;;10.13;2.07;;;19.30;99.90;;;;;;5094959;28;20179;-70
2023/01/07 10:58:49;;;;;;;9.23;1.87;;;19.30;99.90;;;;;;5091128;28;20238;-71
2023/01/07 11:01:30;;;;;;;6.33;1.40;;;19.20;99.90;;;;;;5094506;28;20579;-71
2023/01/07 11:03:59;;;;;;;7.70;2.10;;;19.10;99.90;;;;;;5094603;28;20177;-70
2023/01/07 11:07:06;;;;;;;8.87;2.40;;;19.10;99.90;;;;;;5094364;28;20182;-69
2023/01/07 11:09:46;;;;;;;7.20;1.70;;;19.00;99.90;;;;;;5094757;28;20634;-69
2023/01/07 11:12:21;;;;;;;12.47;1.90;;;19.00;99.90;;;;;;5094381;28;20863;-70
2023/01/07 11:14:50;;;;;;;9.10;1.80;;;19.00;99.90;;;;;;5093196;28;20562;-70
2023/01/07 11:17:37;;;;;;;11.03;2.00;;;19.00;99.90;;;;;;5094466;28;20179;-69
2023/01/07 11:20:05;;;;;;;8.70;1.77;;;19.00;99.90;;;;;;5094502;28;20630;-69
2023/01/07 11:22:36;;;;;;;9.97;2.07;;;19.00;99.90;;;;;;5094591;28;20215;-70
2023/01/07 11:25:29;;;;;;;9.27;1.90;;;19.00;99.90;;;;;;5094757;28;20175;-70
2023/01/07 11:28:02;;;;;;;8.70;2.17;;;19.00;99.90;;;;;;5094471;28;20529;-69
2023/01/07 11:30:32;;;;;;;7.17;2.07;;;19.00;99.90;;;;;;5095930;28;20194;-72
2023/01/07 11:33:05;;;;;;;4.97;1.70;;;19.00;99.90;;;;;;5095511;28;20224;-70
2023/01/07 11:35:33;;;;;;;8.60;1.67;;;19.00;99.90;;;;;;5094333;28;20568;-70
2023/01/07 11:38:00;;;;;;;7.30;2.20;;;19.00;99.90;;;;;;5094647;28;20232;-70
2023/01/07 11:40:33;;;;;;;8.20;1.70;;;19.00;99.90;;;;;;5084448;28;20270;-70
2023/01/07 11:43:15;;;;;;;6.20;1.70;;;19.00;99.90;;;;;;5083586;28;20179;-70
2023/01/07 11:45:52;;;;;;;8.27;1.83;;;18.90;99.90;;;;;;5084696;28;20646;-70
2023/01/07 11:48:30;;;;;;;9.80;1.60;;;19.00;99.90;;;;;;5084295;28;20221;-70
2023/01/07 11:51:12;;;;;;;8.53;1.90;;;19.00;99.90;;;;;;5084201;28;20175;-71
2023/01/07 11:53:50;;;;;;;7.50;1.63;;;18.90;99.90;;;;;;5085766;28;20528;-71
2023/01/07 11:56:20;;;;;;;7.37;1.97;;;18.80;99.90;;;;;;5094256;28;20168;-70
2023/01/07 11:58:52;;;;;;;17.77;2.60;;;18.90;99.90;;;;;;5093727;28;20229;-70
2023/01/07 12:01:22;;;;;;;6.63;1.90;;;18.90;99.90;;;;;;5094091;28;20175;-73
2023/01/07 12:03:52;;;;;;;8.07;1.80;;;18.90;99.90;;;;;;5093919;28;20189;-73
2023/01/07 12:06:24;;;;;;;9.37;1.90;;;18.90;99.90;;;;;;5093683;28;20182;-69
2023/01/07 12:09:07;;;;;;;13.20;2.10;;;18.80;99.90;;;;;;5093608;28;20210;-69
2023/01/07 12:11:37;;;;;;;8.30;1.83;;;18.90;99.90;;;;;;5093664;28;20252;-72
2023/01/07 12:14:26;;;;;;;9.37;1.87;;;18.80;99.90;;;;;;5093600;28;20187;-71
2023/01/07 12:16:56;;;;;;;10.63;1.80;;;18.80;99.90;;;;;;5092180;28;20171;-70
2023/01/07 12:19:54;;;;;;;9.67;1.50;;;18.90;99.90;;;;;;5093534;28;20301;-72
2023/01/07 12:22:42;;;;;;;9.77;2.20;;;18.80;99.90;;;;;;5093661;28;20220;-71
2023/01/07 12:25:31;;;;;;;12.33;2.30;;;18.80;99.90;;;;;;5093624;28;20230;-73
2023/01/07 12:28:16;;;;;;;6.80;1.73;;;18.80;99.90;;;;;;5093366;28;20186;-71
2023/01/07 12:30:55;;;;;;;7.90;1.63;;;18.80;99.90;;;;;;5093761;28;20179;-71
2023/01/07 12:33:28;;;;;;;12.43;2.30;;;18.70;99.90;;;;;;5094059;28;20176;-72
2023/01/07 12:36:21;;;;;;;8.23;1.47;;;18.70;99.90;;;;;;5093828;28;20239;-73
2023/01/07 12:38:52;;;;;;;8.33;1.83;;;18.70;99.90;;;;;;5093645;28;20211;-74
2023/01/07 12:41:24;;;;;;;6.27;1.53;;;18.70;99.90;;;;;;5092453;28;20183;-73
2023/01/07 12:44:20;;;;;;;7.57;1.40;;;18.70;99.90;;;;;;5090144;28;20178;-73
2023/01/07 12:47:05;;;;;;;8.17;1.73;;;18.70;99.90;;;;;;5071146;28;20711;-73
2023/01/07 12:49:48;;;;;;;8.83;1.70;;;18.70;99.90;;;;;;5073860;28;20190;-73
2023/01/07 12:52:15;;;;;;;8.13;1.63;;;18.70;99.90;;;;;;5073799;28;20172;-74
2023/01/07 12:55:01;;;;;;;10.13;2.40;;;18.70;99.90;;;;;;5071956;28;20232;-71
2023/01/07 12:57:33;;;;;;;15.90;2.10;;;18.80;99.90;;;;;;5073204;28;20176;-73
2023/01/07 13:00:13;;;;;;;5.37;1.67;;;18.80;99.90;;;;;;5071410;28;20307;-71
2023/01/07 13:02:50;;;;;;;10.83;2.03;;;18.70;99.90;;;;;;5071423;28;20578;-70
2023/01/07 13:05:50;;;;;;;6.67;2.30;;;18.60;99.90;;;;;;5075996;28;20176;-72
2023/01/07 13:08:36;;;;;;;7.63;1.93;;;18.60;99.90;;;;;;5091577;28;20175;-70
2023/01/07 13:11:17;;;;;;;6.40;1.67;;;18.60;99.90;;;;;;5078481;28;20182;-69
2023/01/07 13:13:51;;;;;;;7.10;1.90;;;18.60;99.90;;;;;;5086606;28;20713;-69
2023/01/07 13:16:18;;;;;;;6.00;1.63;;;18.60;99.90;;;;;;5072263;28;20184;-69